sensor_id;sensor_type;location;lat;lon;timestamp;P1;durP1;ratioP1;P2;durP2;ratioP2
9720;SDS011;4899;42.644;23.366;2023-02-28T00:00:35;31.97;;;20.77;;
9720;SDS011;4899;42.644;23.366;2023-02-28T00:03:02;37.17;;;20.67;;
9720;SDS011;4899;42.644;23.366;2023-02-28T00:05:28;36.83;;;20.60;;
9720;SDS011;4899;42.644;23.366;2023-02-28T00:07:54;37.17;;;20.90;;
9720;SDS011;4899;42.644;23.366;2023-02-28T00:10:21;33.87;;;20.77;;
9720;SDS011;4899;42.644;23.366;2023-02-28T00:12:49;33.10;;;20.50;;
9720;SDS011;4899;42.644;23.366;2023-02-28T00:15:16;38.23;;;22.27;;
9720;SDS011;4899;42.644;23.366;2023-02-28T00:17:42;32.40;;;19.87;;
9720;SDS011;4899;42.644;23.366;2023-02-28T00:20:08;35.43;;;19.93;;
9720;SDS011;4899;42.644;23.366;2023-02-28T00:22:38;35.73;;;19.63;;
9720;SDS011;4899;42.644;23.366;2023-02-28T00:25:04;31.47;;;19.70;;
9720;SDS011;4899;42.644;23.366;2023-02-28T00:27:32;31.30;;;18.67;;
9720;SDS011;4899;42.644;23.366;2023-02-28T00:29:58;26.30;;;17.03;;
9720;SDS011;4899;42.644;23.366;2023-02-28T00:32:23;26.37;;;16.93;;
9720;SDS011;4899;42.644;23.366;2023-02-28T00:34:49;26.13;;;16.13;;
9720;SDS011;4899;42.644;23.366;2023-02-28T00:37:14;27.47;;;16.87;;
9720;SDS011;4899;42.644;23.366;2023-02-28T00:39:40;29.87;;;17.90;;
9720;SDS011;4899;42.644;23.366;2023-02-28T00:42:06;31.33;;;18.47;;
9720;SDS011;4899;42.644;23.366;2023-02-28T00:44:32;30.43;;;19.07;;
9720;SDS011;4899;42.644;23.366;2023-02-28T00:46:57;33.43;;;19.73;;
9720;SDS011;4899;42.644;23.366;2023-02-28T00:49:24;36.90;;;20.63;;
9720;SDS011;4899;42.644;23.366;2023-02-28T00:51:51;34.27;;;19.00;;
9720;SDS011;4899;42.644;23.366;2023-02-28T00:54:17;36.13;;;20.57;;
9720;SDS011;4899;42.644;23.366;2023-02-28T00:56:43;41.30;;;22.50;;
9720;SDS011;4899;42.644;23.366;2023-02-28T00:59:08;38.53;;;21.27;;
9720;SDS011;4899;42.644;23.366;2023-02-28T01:01:34;38.87;;;21.70;;
9720;SDS011;4899;42.644;23.366;2023-02-28T01:04:00;33.60;;;21.17;;
9720;SDS011;4899;42.644;23.366;2023-02-28T01:06:25;35.67;;;21.00;;
9720;SDS011;4899;42.644;23.366;2023-02-28T01:08:51;43.30;;;22.23;;
9720;SDS011;4899;42.644;23.366;2023-02-28T01:11:17;35.67;;;20.80;;
9720;SDS011;4899;42.644;23.366;2023-02-28T01:13:43;34.60;;;20.87;;
9720;SDS011;4899;42.644;23.366;2023-02-28T01:16:09;35.20;;;21.23;;
9720;SDS011;4899;42.644;23.366;2023-02-28T01:18:35;34.43;;;21.00;;
9720;SDS011;4899;42.644;23.366;2023-02-28T01:21:09;39.80;;;22.93;;
9720;SDS011;4899;42.644;23.366;2023-02-28T01:23:37;40.20;;;23.07;;
9720;SDS011;4899;42.644;23.366;2023-02-28T01:26:07;43.07;;;23.67;;
9720;SDS011;4899;42.644;23.366;2023-02-28T01:28:43;43.10;;;23.53;;
9720;SDS011;4899;42.644;23.366;2023-02-28T01:31:09;46.57;;;24.27;;
9720;SDS011;4899;42.644;23.366;2023-02-28T01:33:34;45.77;;;24.90;;
9720;SDS011;4899;42.644;23.366;2023-02-28T01:36:10;44.93;;;25.37;;
9720;SDS011;4899;42.644;23.366;2023-02-28T01:38:45;50.90;;;25.70;;
9720;SDS011;4899;42.644;23.366;2023-02-28T01:41:16;50.40;;;25.97;;
9720;SDS011;4899;42.644;23.366;2023-02-28T01:43:54;49.27;;;26.20;;
9720;SDS011;4899;42.644;23.366;2023-02-28T01:46:20;44.33;;;25.37;;
9720;SDS011;4899;42.644;23.366;2023-02-28T01:48:46;48.00;;;25.63;;
9720;SDS011;4899;42.644;23.366;2023-02-28T01:52:00;49.27;;;26.07;;
9720;SDS011;4899;42.644;23.366;2023-02-28T01:54:11;55.90;;;28.50;;
9720;SDS011;4899;42.644;23.366;2023-02-28T01:56:45;45.70;;;26.40;;
9720;SDS011;4899;42.644;23.366;2023-02-28T01:59:18;49.87;;;28.20;;
9720;SDS011;4899;42.644;23.366;2023-02-28T02:01:48;59.83;;;28.13;;
9720;SDS011;4899;42.644;23.366;2023-02-28T02:04:14;57.43;;;28.43;;
9720;SDS011;4899;42.644;23.366;2023-02-28T02:06:42;50.30;;;24.70;;
9720;SDS011;4899;42.644;23.366;2023-02-28T02:09:10;58.90;;;26.90;;
9720;SDS011;4899;42.644;23.366;2023-02-28T02:11:36;52.63;;;25.83;;
9720;SDS011;4899;42.644;23.366;2023-02-28T02:14:11;61.27;;;26.53;;
9720;SDS011;4899;42.644;23.366;2023-02-28T02:16:57;54.97;;;27.63;;
9720;SDS011;4899;42.644;23.366;2023-02-28T02:34:23;45.80;;;24.13;;
9720;SDS011;4899;42.644;23.366;2023-02-28T02:40:16;46.83;;;24.13;;
9720;SDS011;4899;42.644;23.366;2023-02-28T02:42:39;43.90;;;24.20;;
9720;SDS011;4899;42.644;23.366;2023-02-28T02:45:31;52.53;;;24.87;;
9720;SDS011;4899;42.644;23.366;2023-02-28T02:48:01;68.97;;;25.57;;
9720;SDS011;4899;42.644;23.366;2023-02-28T02:50:31;46.37;;;23.83;;
9720;SDS011;4899;42.644;23.366;2023-02-28T02:53:02;79.17;;;25.73;;
9720;SDS011;4899;42.644;23.366;2023-02-28T02:55:31;52.03;;;25.80;;
9720;SDS011;4899;42.644;23.366;2023-02-28T02:58:03;52.70;;;25.77;;
9720;SDS011;4899;42.644;23.366;2023-02-28T03:00:37;58.27;;;26.67;;
9720;SDS011;4899;42.644;23.366;2023-02-28T03:03:06;66.73;;;28.30;;
9720;SDS011;4899;42.644;23.366;2023-02-28T03:08:13;54.13;;;27.00;;
9720;SDS011;4899;42.644;23.366;2023-02-28T03:10:43;50.53;;;27.00;;
9720;SDS011;4899;42.644;23.366;2023-02-28T03:23:45;57.60;;;27.23;;
9720;SDS011;4899;42.644;23.366;2023-02-28T03:26:19;47.90;;;25.93;;
9720;SDS011;4899;42.644;23.366;2023-02-28T03:31:32;56.27;;;27.13;;
9720;SDS011;4899;42.644;23.366;2023-02-28T03:34:08;55.47;;;26.80;;
9720;SDS011;4899;42.644;23.366;2023-02-28T03:36:44;51.30;;;26.10;;
9720;SDS011;4899;42.644;23.366;2023-02-28T03:39:19;49.63;;;26.13;;
9720;SDS011;4899;42.644;23.366;2023-02-28T03:41:59;77.60;;;29.63;;
9720;SDS011;4899;42.644;23.366;2023-02-28T03:44:29;74.07;;;30.57;;
9720;SDS011;4899;42.644;23.366;2023-02-28T03:47:44;69.97;;;30.27;;
9720;SDS011;4899;42.644;23.366;2023-02-28T03:52:47;85.87;;;30.40;;
9720;SDS011;4899;42.644;23.366;2023-02-28T03:55:36;69.93;;;31.57;;
9720;SDS011;4899;42.644;23.366;2023-02-28T03:58:08;62.00;;;30.13;;
9720;SDS011;4899;42.644;23.366;2023-02-28T04:00:46;65.23;;;31.60;;
9720;SDS011;4899;42.644;23.366;2023-02-28T04:03:15;78.60;;;30.43;;
9720;SDS011;4899;42.644;23.366;2023-02-28T04:05:50;70.97;;;31.10;;
9720;SDS011;4899;42.644;23.366;2023-02-28T04:08:18;91.97;;;30.33;;
9720;SDS011;4899;42.644;23.366;2023-02-28T04:10:43;89.20;;;30.00;;
9720;SDS011;4899;42.644;23.366;2023-02-28T04:13:13;85.33;;;28.47;;
9720;SDS011;4899;42.644;23.366;2023-02-28T04:15:38;78.87;;;30.87;;
9720;SDS011;4899;42.644;23.366;2023-02-28T04:18:04;81.80;;;29.40;;
9720;SDS011;4899;42.644;23.366;2023-02-28T04:20:29;65.30;;;26.57;;
9720;SDS011;4899;42.644;23.366;2023-02-28T04:22:54;68.43;;;26.57;;
9720;SDS011;4899;42.644;23.366;2023-02-28T04:25:21;59.23;;;26.03;;
9720;SDS011;4899;42.644;23.366;2023-02-28T04:27:46;54.83;;;25.17;;
9720;SDS011;4899;42.644;23.366;2023-02-28T04:30:12;59.47;;;26.10;;
9720;SDS011;4899;42.644;23.366;2023-02-28T04:32:37;54.83;;;25.30;;
9720;SDS011;4899;42.644;23.366;2023-02-28T04:35:03;50.97;;;24.57;;
9720;SDS011;4899;42.644;23.366;2023-02-28T04:37:29;50.03;;;24.63;;
9720;SDS011;4899;42.644;23.366;2023-02-28T04:39:54;45.77;;;23.33;;
9720;SDS011;4899;42.644;23.366;2023-02-28T04:42:21;69.87;;;25.30;;
9720;SDS011;4899;42.644;23.366;2023-02-28T04:44:46;48.60;;;24.27;;
9720;SDS011;4899;42.644;23.366;2023-02-28T04:47:12;48.57;;;24.17;;
9720;SDS011;4899;42.644;23.366;2023-02-28T04:49:38;52.80;;;25.17;;
9720;SDS011;4899;42.644;23.366;2023-02-28T04:52:04;48.83;;;23.63;;
9720;SDS011;4899;42.644;23.366;2023-02-28T04:54:29;82.80;;;26.13;;
9720;SDS011;4899;42.644;23.366;2023-02-28T04:56:55;52.90;;;24.60;;
9720;SDS011;4899;42.644;23.366;2023-02-28T04:59:21;59.63;;;26.13;;
9720;SDS011;4899;42.644;23.366;2023-02-28T05:01:47;67.00;;;27.77;;
9720;SDS011;4899;42.644;23.366;2023-02-28T05:04:13;83.47;;;29.07;;
9720;SDS011;4899;42.644;23.366;2023-02-28T05:06:39;101.80;;;34.50;;
9720;SDS011;4899;42.644;23.366;2023-02-28T05:09:05;101.37;;;34.40;;
9720;SDS011;4899;42.644;23.366;2023-02-28T05:11:31;81.43;;;32.40;;
9720;SDS011;4899;42.644;23.366;2023-02-28T05:14:02;261.47;;;38.37;;
9720;SDS011;4899;42.644;23.366;2023-02-28T05:16:35;430.63;;;43.47;;
9720;SDS011;4899;42.644;23.366;2023-02-28T05:19:01;167.50;;;34.40;;
9720;SDS011;4899;42.644;23.366;2023-02-28T05:24:00;74.10;;;32.50;;
9720;SDS011;4899;42.644;23.366;2023-02-28T05:26:28;91.20;;;31.77;;
9720;SDS011;4899;42.644;23.366;2023-02-28T05:28:54;88.50;;;31.40;;
9720;SDS011;4899;42.644;23.366;2023-02-28T05:31:19;136.10;;;33.67;;
9720;SDS011;4899;42.644;23.366;2023-02-28T05:33:45;81.97;;;31.90;;
9720;SDS011;4899;42.644;23.366;2023-02-28T05:36:11;72.33;;;33.90;;
9720;SDS011;4899;42.644;23.366;2023-02-28T05:38:36;62.40;;;32.93;;
9720;SDS011;4899;42.644;23.366;2023-02-28T05:41:06;58.20;;;30.53;;
9720;SDS011;4899;42.644;23.366;2023-02-28T05:43:37;62.57;;;32.60;;
9720;SDS011;4899;42.644;23.366;2023-02-28T05:46:06;54.37;;;29.50;;
9720;SDS011;4899;42.644;23.366;2023-02-28T05:48:33;70.27;;;32.13;;
9720;SDS011;4899;42.644;23.366;2023-02-28T05:51:00;65.83;;;32.83;;
9720;SDS011;4899;42.644;23.366;2023-02-28T05:53:26;65.07;;;32.87;;
9720;SDS011;4899;42.644;23.366;2023-02-28T05:55:52;58.43;;;31.73;;
9720;SDS011;4899;42.644;23.366;2023-02-28T05:58:17;59.13;;;30.93;;
9720;SDS011;4899;42.644;23.366;2023-02-28T06:00:43;64.10;;;31.07;;
9720;SDS011;4899;42.644;23.366;2023-02-28T06:03:09;54.57;;;30.77;;
9720;SDS011;4899;42.644;23.366;2023-02-28T06:05:34;64.20;;;31.40;;
9720;SDS011;4899;42.644;23.366;2023-02-28T06:08:00;55.27;;;30.83;;
9720;SDS011;4899;42.644;23.366;2023-02-28T06:10:25;53.37;;;29.77;;
9720;SDS011;4899;42.644;23.366;2023-02-28T06:12:50;46.83;;;29.17;;
9720;SDS011;4899;42.644;23.366;2023-02-28T06:15:16;54.43;;;28.90;;
9720;SDS011;4899;42.644;23.366;2023-02-28T06:17:42;45.20;;;27.27;;
9720;SDS011;4899;42.644;23.366;2023-02-28T06:20:09;39.77;;;25.63;;
9720;SDS011;4899;42.644;23.366;2023-02-28T06:22:37;42.80;;;26.50;;
9720;SDS011;4899;42.644;23.366;2023-02-28T06:25:04;40.67;;;27.20;;
9720;SDS011;4899;42.644;23.366;2023-02-28T06:27:31;39.67;;;27.00;;
9720;SDS011;4899;42.644;23.366;2023-02-28T06:29:57;36.00;;;26.00;;
9720;SDS011;4899;42.644;23.366;2023-02-28T06:32:22;39.43;;;26.37;;
9720;SDS011;4899;42.644;23.366;2023-02-28T06:34:47;37.40;;;23.93;;
9720;SDS011;4899;42.644;23.366;2023-02-28T06:37:13;33.10;;;22.20;;
9720;SDS011;4899;42.644;23.366;2023-02-28T06:39:39;29.10;;;21.27;;
9720;SDS011;4899;42.644;23.366;2023-02-28T06:42:05;32.20;;;23.20;;
9720;SDS011;4899;42.644;23.366;2023-02-28T06:44:30;29.60;;;20.13;;
9720;SDS011;4899;42.644;23.366;2023-02-28T06:47:05;29.90;;;22.10;;
9720;SDS011;4899;42.644;23.366;2023-02-28T06:49:31;27.03;;;20.00;;
9720;SDS011;4899;42.644;23.366;2023-02-28T06:51:58;29.53;;;20.30;;
9720;SDS011;4899;42.644;23.366;2023-02-28T06:54:23;28.53;;;20.93;;
9720;SDS011;4899;42.644;23.366;2023-02-28T06:56:49;28.83;;;20.80;;
9720;SDS011;4899;42.644;23.366;2023-02-28T06:59:15;28.77;;;20.50;;
9720;SDS011;4899;42.644;23.366;2023-02-28T07:01:41;26.87;;;19.90;;
9720;SDS011;4899;42.644;23.366;2023-02-28T07:04:06;31.47;;;20.07;;
9720;SDS011;4899;42.644;23.366;2023-02-28T07:06:32;27.33;;;18.77;;
9720;SDS011;4899;42.644;23.366;2023-02-28T07:08:58;27.17;;;20.47;;
9720;SDS011;4899;42.644;23.366;2023-02-28T07:11:25;29.83;;;20.60;;
9720;SDS011;4899;42.644;23.366;2023-02-28T07:13:54;28.87;;;20.67;;
9720;SDS011;4899;42.644;23.366;2023-02-28T07:16:21;27.60;;;20.33;;
9720;SDS011;4899;42.644;23.366;2023-02-28T07:18:47;30.50;;;22.70;;
9720;SDS011;4899;42.644;23.366;2023-02-28T07:21:13;31.57;;;21.77;;
9720;SDS011;4899;42.644;23.366;2023-02-28T07:23:39;31.03;;;22.90;;
9720;SDS011;4899;42.644;23.366;2023-02-28T07:26:06;31.93;;;23.00;;
9720;SDS011;4899;42.644;23.366;2023-02-28T07:28:32;32.73;;;22.90;;
9720;SDS011;4899;42.644;23.366;2023-02-28T07:31:03;31.77;;;23.20;;
9720;SDS011;4899;42.644;23.366;2023-02-28T07:33:32;32.30;;;23.63;;
9720;SDS011;4899;42.644;23.366;2023-02-28T07:36:03;33.70;;;23.03;;
9720;SDS011;4899;42.644;23.366;2023-02-28T07:38:36;29.87;;;21.50;;
9720;SDS011;4899;42.644;23.366;2023-02-28T07:41:02;26.73;;;21.40;;
9720;SDS011;4899;42.644;23.366;2023-02-28T07:43:31;25.63;;;21.00;;
9720;SDS011;4899;42.644;23.366;2023-02-28T07:46:01;29.00;;;21.27;;
9720;SDS011;4899;42.644;23.366;2023-02-28T07:48:30;29.23;;;21.50;;
9720;SDS011;4899;42.644;23.366;2023-02-28T07:50:56;33.10;;;21.70;;
9720;SDS011;4899;42.644;23.366;2023-02-28T07:53:23;38.10;;;22.23;;
9720;SDS011;4899;42.644;23.366;2023-02-28T07:55:48;26.43;;;20.80;;
9720;SDS011;4899;42.644;23.366;2023-02-28T07:58:14;32.07;;;20.60;;
9720;SDS011;4899;42.644;23.366;2023-02-28T08:00:39;30.30;;;20.63;;
9720;SDS011;4899;42.644;23.366;2023-02-28T08:03:05;28.13;;;19.97;;
9720;SDS011;4899;42.644;23.366;2023-02-28T08:05:30;29.27;;;20.77;;
9720;SDS011;4899;42.644;23.366;2023-02-28T08:07:56;27.07;;;20.77;;
9720;SDS011;4899;42.644;23.366;2023-02-28T08:10:21;27.63;;;20.93;;
9720;SDS011;4899;42.644;23.366;2023-02-28T08:12:47;27.17;;;19.80;;
9720;SDS011;4899;42.644;23.366;2023-02-28T08:15:13;31.37;;;20.83;;
9720;SDS011;4899;42.644;23.366;2023-02-28T08:17:38;28.50;;;20.73;;
9720;SDS011;4899;42.644;23.366;2023-02-28T08:20:04;23.83;;;19.40;;
9720;SDS011;4899;42.644;23.366;2023-02-28T08:22:30;28.73;;;20.53;;
9720;SDS011;4899;42.644;23.366;2023-02-28T08:24:55;27.47;;;20.43;;
9720;SDS011;4899;42.644;23.366;2023-02-28T08:27:20;27.97;;;20.33;;
9720;SDS011;4899;42.644;23.366;2023-02-28T08:29:46;26.60;;;19.47;;
9720;SDS011;4899;42.644;23.366;2023-02-28T08:32:12;26.30;;;19.77;;
9720;SDS011;4899;42.644;23.366;2023-02-28T08:34:38;28.80;;;18.67;;
9720;SDS011;4899;42.644;23.366;2023-02-28T08:37:05;27.87;;;17.67;;
9720;SDS011;4899;42.644;23.366;2023-02-28T08:39:33;24.30;;;17.10;;
9720;SDS011;4899;42.644;23.366;2023-02-28T08:42:00;29.40;;;19.53;;
9720;SDS011;4899;42.644;23.366;2023-02-28T08:44:25;26.27;;;19.93;;
9720;SDS011;4899;42.644;23.366;2023-02-28T08:46:52;26.77;;;17.03;;
9720;SDS011;4899;42.644;23.366;2023-02-28T08:49:17;20.97;;;15.67;;
9720;SDS011;4899;42.644;23.366;2023-02-28T08:51:43;25.47;;;16.63;;
9720;SDS011;4899;42.644;23.366;2023-02-28T08:54:09;25.90;;;17.13;;
9720;SDS011;4899;42.644;23.366;2023-02-28T08:56:37;25.00;;;15.47;;
9720;SDS011;4899;42.644;23.366;2023-02-28T08:59:03;23.20;;;16.43;;
9720;SDS011;4899;42.644;23.366;2023-02-28T09:01:29;21.87;;;15.97;;
9720;SDS011;4899;42.644;23.366;2023-02-28T09:03:56;19.90;;;14.80;;
9720;SDS011;4899;42.644;23.366;2023-02-28T09:06:23;19.50;;;14.63;;
9720;SDS011;4899;42.644;23.366;2023-02-28T09:08:50;23.03;;;15.60;;
9720;SDS011;4899;42.644;23.366;2023-02-28T09:11:17;24.33;;;17.90;;
9720;SDS011;4899;42.644;23.366;2023-02-28T09:13:44;20.50;;;15.83;;
9720;SDS011;4899;42.644;23.366;2023-02-28T09:16:11;26.87;;;18.50;;
9720;SDS011;4899;42.644;23.366;2023-02-28T09:18:38;24.47;;;17.17;;
9720;SDS011;4899;42.644;23.366;2023-02-28T09:21:04;20.50;;;17.30;;
9720;SDS011;4899;42.644;23.366;2023-02-28T09:23:30;25.97;;;16.30;;
9720;SDS011;4899;42.644;23.366;2023-02-28T09:25:56;34.40;;;23.70;;
9720;SDS011;4899;42.644;23.366;2023-02-28T09:28:21;26.83;;;20.03;;
9720;SDS011;4899;42.644;23.366;2023-02-28T09:30:48;22.33;;;16.57;;
9720;SDS011;4899;42.644;23.366;2023-02-28T09:33:16;22.50;;;16.43;;
9720;SDS011;4899;42.644;23.366;2023-02-28T09:35:42;25.53;;;17.53;;
9720;SDS011;4899;42.644;23.366;2023-02-28T09:38:08;22.37;;;18.60;;
9720;SDS011;4899;42.644;23.366;2023-02-28T09:40:46;23.53;;;16.60;;
9720;SDS011;4899;42.644;23.366;2023-02-28T09:43:14;22.47;;;16.20;;
9720;SDS011;4899;42.644;23.366;2023-02-28T09:45:42;20.30;;;16.00;;
9720;SDS011;4899;42.644;23.366;2023-02-28T09:48:16;22.33;;;16.17;;
9720;SDS011;4899;42.644;23.366;2023-02-28T09:50:52;24.13;;;16.37;;
9720;SDS011;4899;42.644;23.366;2023-02-28T09:53:26;19.90;;;15.10;;
9720;SDS011;4899;42.644;23.366;2023-02-28T09:56:11;20.13;;;15.53;;
9720;SDS011;4899;42.644;23.366;2023-02-28T09:59:18;21.03;;;13.97;;
9720;SDS011;4899;42.644;23.366;2023-02-28T10:07:00;18.27;;;14.73;;
9720;SDS011;4899;42.644;23.366;2023-02-28T10:09:31;19.93;;;13.77;;
9720;SDS011;4899;42.644;23.366;2023-02-28T10:12:03;19.57;;;13.43;;
9720;SDS011;4899;42.644;23.366;2023-02-28T10:14:30;18.47;;;13.47;;
9720;SDS011;4899;42.644;23.366;2023-02-28T10:17:08;21.10;;;14.70;;
9720;SDS011;4899;42.644;23.366;2023-02-28T10:19:46;17.53;;;14.07;;
9720;SDS011;4899;42.644;23.366;2023-02-28T10:22:52;27.00;;;15.30;;
9720;SDS011;4899;42.644;23.366;2023-02-28T10:25:39;20.83;;;13.70;;
9720;SDS011;4899;42.644;23.366;2023-02-28T10:30:33;19.50;;;13.83;;
9720;SDS011;4899;42.644;23.366;2023-02-28T10:32:59;19.33;;;14.20;;
9720;SDS011;4899;42.644;23.366;2023-02-28T10:35:25;17.07;;;12.77;;
9720;SDS011;4899;42.644;23.366;2023-02-28T10:37:58;18.30;;;12.43;;
9720;SDS011;4899;42.644;23.366;2023-02-28T10:40:28;19.50;;;13.17;;
9720;SDS011;4899;42.644;23.366;2023-02-28T10:45:57;17.80;;;13.43;;
9720;SDS011;4899;42.644;23.366;2023-02-28T10:51:00;20.13;;;13.13;;
9720;SDS011;4899;42.644;23.366;2023-02-28T10:53:59;17.70;;;12.90;;
9720;SDS011;4899;42.644;23.366;2023-02-28T10:56:23;19.83;;;14.33;;
9720;SDS011;4899;42.644;23.366;2023-02-28T10:58:57;20.70;;;13.67;;
9720;SDS011;4899;42.644;23.366;2023-02-28T11:01:24;20.10;;;13.70;;
9720;SDS011;4899;42.644;23.366;2023-02-28T11:03:53;21.10;;;13.00;;
9720;SDS011;4899;42.644;23.366;2023-02-28T11:06:20;18.20;;;12.53;;
9720;SDS011;4899;42.644;23.366;2023-02-28T11:09:23;19.90;;;12.10;;
9720;SDS011;4899;42.644;23.366;2023-02-28T11:12:55;22.37;;;13.70;;
9720;SDS011;4899;42.644;23.366;2023-02-28T11:18:06;18.90;;;13.10;;
9720;SDS011;4899;42.644;23.366;2023-02-28T11:20:50;23.20;;;13.37;;
9720;SDS011;4899;42.644;23.366;2023-02-28T11:23:18;21.57;;;14.10;;
9720;SDS011;4899;42.644;23.366;2023-02-28T11:25:49;20.37;;;13.23;;
9720;SDS011;4899;42.644;23.366;2023-02-28T11:28:34;20.00;;;13.07;;
9720;SDS011;4899;42.644;23.366;2023-02-28T11:33:31;22.67;;;14.23;;
9720;SDS011;4899;42.644;23.366;2023-02-28T11:36:13;19.87;;;14.53;;
9720;SDS011;4899;42.644;23.366;2023-02-28T11:38:42;22.00;;;14.60;;
9720;SDS011;4899;42.644;23.366;2023-02-28T11:44:10;20.63;;;15.07;;
9720;SDS011;4899;42.644;23.366;2023-02-28T11:46:56;17.53;;;14.23;;
9720;SDS011;4899;42.644;23.366;2023-02-28T11:55:27;21.17;;;14.80;;
9720;SDS011;4899;42.644;23.366;2023-02-28T12:00:56;22.27;;;15.13;;
9720;SDS011;4899;42.644;23.366;2023-02-28T12:09:21;20.63;;;14.40;;
9720;SDS011;4899;42.644;23.366;2023-02-28T12:12:06;17.63;;;13.27;;
9720;SDS011;4899;42.644;23.366;2023-02-28T12:23:00;20.57;;;15.20;;
9720;SDS011;4899;42.644;23.366;2023-02-28T12:28:44;18.30;;;13.20;;
9720;SDS011;4899;42.644;23.366;2023-02-28T12:31:16;23.00;;;13.03;;
9720;SDS011;4899;42.644;23.366;2023-02-28T12:33:53;22.47;;;13.27;;
9720;SDS011;4899;42.644;23.366;2023-02-28T12:36:24;14.87;;;13.27;;
9720;SDS011;4899;42.644;23.366;2023-02-28T12:39:01;17.33;;;12.57;;
9720;SDS011;4899;42.644;23.366;2023-02-28T12:41:39;17.20;;;13.80;;
9720;SDS011;4899;42.644;23.366;2023-02-28T12:46:58;21.17;;;13.37;;
9720;SDS011;4899;42.644;23.366;2023-02-28T12:49:34;20.67;;;13.93;;
9720;SDS011;4899;42.644;23.366;2023-02-28T12:52:06;18.93;;;14.00;;
9720;SDS011;4899;42.644;23.366;2023-02-28T13:00:04;21.17;;;13.70;;
9720;SDS011;4899;42.644;23.366;2023-02-28T13:08:19;19.63;;;14.60;;
9720;SDS011;4899;42.644;23.366;2023-02-28T13:10:48;19.60;;;14.03;;
9720;SDS011;4899;42.644;23.366;2023-02-28T13:13:20;21.47;;;13.37;;
9720;SDS011;4899;42.644;23.366;2023-02-28T13:18:36;18.43;;;12.63;;
9720;SDS011;4899;42.644;23.366;2023-02-28T13:21:08;17.27;;;13.40;;
9720;SDS011;4899;42.644;23.366;2023-02-28T13:26:22;15.07;;;11.93;;
9720;SDS011;4899;42.644;23.366;2023-02-28T13:31:14;17.27;;;11.50;;
9720;SDS011;4899;42.644;23.366;2023-02-28T13:38:46;15.80;;;10.70;;
9720;SDS011;4899;42.644;23.366;2023-02-28T14:00:30;19.13;;;11.73;;
9720;SDS011;4899;42.644;23.366;2023-02-28T14:08:45;18.63;;;11.37;;
9720;SDS011;4899;42.644;23.366;2023-02-28T14:11:28;20.23;;;12.17;;
9720;SDS011;4899;42.644;23.366;2023-02-28T14:13:56;22.47;;;12.37;;
9720;SDS011;4899;42.644;23.366;2023-02-28T14:16:23;19.77;;;11.70;;
9720;SDS011;4899;42.644;23.366;2023-02-28T14:18:58;19.47;;;12.70;;
9720;SDS011;4899;42.644;23.366;2023-02-28T14:21:34;18.70;;;11.83;;
9720;SDS011;4899;42.644;23.366;2023-02-28T14:24:22;21.97;;;12.83;;
9720;SDS011;4899;42.644;23.366;2023-02-28T14:34:53;18.13;;;12.77;;
9720;SDS011;4899;42.644;23.366;2023-02-28T14:37:28;17.67;;;12.13;;
9720;SDS011;4899;42.644;23.366;2023-02-28T14:39:58;20.73;;;13.03;;
9720;SDS011;4899;42.644;23.366;2023-02-28T14:42:35;17.80;;;12.37;;
9720;SDS011;4899;42.644;23.366;2023-02-28T14:45:21;23.80;;;13.87;;
9720;SDS011;4899;42.644;23.366;2023-02-28T14:47:49;14.13;;;10.67;;
9720;SDS011;4899;42.644;23.366;2023-02-28T14:50:23;20.30;;;11.93;;
9720;SDS011;4899;42.644;23.366;2023-02-28T14:52:55;16.83;;;12.80;;
9720;SDS011;4899;42.644;23.366;2023-02-28T14:55:25;18.27;;;12.07;;
9720;SDS011;4899;42.644;23.366;2023-02-28T14:58:00;19.70;;;13.33;;
9720;SDS011;4899;42.644;23.366;2023-02-28T15:00:29;19.53;;;13.03;;
9720;SDS011;4899;42.644;23.366;2023-02-28T15:02:58;19.00;;;13.37;;
9720;SDS011;4899;42.644;23.366;2023-02-28T15:05:32;17.03;;;13.63;;
9720;SDS011;4899;42.644;23.366;2023-02-28T15:08:04;23.47;;;13.87;;
9720;SDS011;4899;42.644;23.366;2023-02-28T15:10:30;19.33;;;13.47;;
9720;SDS011;4899;42.644;23.366;2023-02-28T15:15:34;18.17;;;11.80;;
9720;SDS011;4899;42.644;23.366;2023-02-28T15:18:00;15.70;;;10.40;;
9720;SDS011;4899;42.644;23.366;2023-02-28T15:20:30;15.50;;;11.17;;
9720;SDS011;4899;42.644;23.366;2023-02-28T15:22:58;16.53;;;11.17;;
9720;SDS011;4899;42.644;23.366;2023-02-28T15:25:24;22.80;;;11.77;;
9720;SDS011;4899;42.644;23.366;2023-02-28T15:27:55;15.27;;;11.47;;
9720;SDS011;4899;42.644;23.366;2023-02-28T15:30:26;16.30;;;10.47;;
9720;SDS011;4899;42.644;23.366;2023-02-28T15:33:04;16.43;;;10.63;;
9720;SDS011;4899;42.644;23.366;2023-02-28T15:35:37;20.03;;;12.03;;
9720;SDS011;4899;42.644;23.366;2023-02-28T15:48:28;15.33;;;10.43;;
9720;SDS011;4899;42.644;23.366;2023-02-28T15:53:35;20.77;;;15.77;;
9720;SDS011;4899;42.644;23.366;2023-02-28T15:56:04;13.33;;;9.13;;
9720;SDS011;4899;42.644;23.366;2023-02-28T15:58:38;13.13;;;9.27;;
9720;SDS011;4899;42.644;23.366;2023-02-28T16:01:08;10.50;;;8.20;;
9720;SDS011;4899;42.644;23.366;2023-02-28T16:03:45;12.50;;;8.50;;
9720;SDS011;4899;42.644;23.366;2023-02-28T16:08:51;12.37;;;9.67;;
9720;SDS011;4899;42.644;23.366;2023-02-28T16:11:18;12.67;;;8.83;;
9720;SDS011;4899;42.644;23.366;2023-02-28T16:13:46;12.37;;;9.80;;
9720;SDS011;4899;42.644;23.366;2023-02-28T16:16:19;12.03;;;8.83;;
9720;SDS011;4899;42.644;23.366;2023-02-28T16:18:46;9.93;;;8.47;;
9720;SDS011;4899;42.644;23.366;2023-02-28T16:21:12;10.43;;;8.83;;
9720;SDS011;4899;42.644;23.366;2023-02-28T16:23:37;12.20;;;8.63;;
9720;SDS011;4899;42.644;23.366;2023-02-28T16:26:03;12.13;;;8.43;;
9720;SDS011;4899;42.644;23.366;2023-02-28T16:28:31;11.30;;;8.50;;
9720;SDS011;4899;42.644;23.366;2023-02-28T16:31:00;10.47;;;8.90;;
9720;SDS011;4899;42.644;23.366;2023-02-28T16:33:28;10.47;;;8.73;;
9720;SDS011;4899;42.644;23.366;2023-02-28T16:35:54;11.40;;;7.73;;
9720;SDS011;4899;42.644;23.366;2023-02-28T16:38:19;10.97;;;8.20;;
9720;SDS011;4899;42.644;23.366;2023-02-28T16:40:46;8.97;;;7.07;;
9720;SDS011;4899;42.644;23.366;2023-02-28T16:43:18;12.03;;;8.47;;
9720;SDS011;4899;42.644;23.366;2023-02-28T16:45:47;10.73;;;7.63;;
9720;SDS011;4899;42.644;23.366;2023-02-28T16:48:14;9.47;;;7.37;;
9720;SDS011;4899;42.644;23.366;2023-02-28T16:50:41;8.60;;;7.70;;
9720;SDS011;4899;42.644;23.366;2023-02-28T16:53:08;8.53;;;7.63;;
9720;SDS011;4899;42.644;23.366;2023-02-28T16:55:34;8.47;;;7.67;;
9720;SDS011;4899;42.644;23.366;2023-02-28T16:58:00;9.33;;;7.60;;
9720;SDS011;4899;42.644;23.366;2023-02-28T17:00:26;10.00;;;6.57;;
9720;SDS011;4899;42.644;23.366;2023-02-28T17:02:53;9.20;;;6.67;;
9720;SDS011;4899;42.644;23.366;2023-02-28T17:05:19;10.73;;;7.53;;
9720;SDS011;4899;42.644;23.366;2023-02-28T17:07:45;9.50;;;7.37;;
9720;SDS011;4899;42.644;23.366;2023-02-28T17:10:16;7.33;;;6.67;;
9720;SDS011;4899;42.644;23.366;2023-02-28T17:12:45;8.43;;;5.67;;
9720;SDS011;4899;42.644;23.366;2023-02-28T17:15:11;11.17;;;7.27;;
9720;SDS011;4899;42.644;23.366;2023-02-28T17:17:38;9.60;;;5.77;;
9720;SDS011;4899;42.644;23.366;2023-02-28T17:20:06;9.37;;;5.53;;
9720;SDS011;4899;42.644;23.366;2023-02-28T17:22:36;7.47;;;6.33;;
9720;SDS011;4899;42.644;23.366;2023-02-28T17:25:01;5.80;;;5.27;;
9720;SDS011;4899;42.644;23.366;2023-02-28T17:27:27;7.83;;;5.73;;
9720;SDS011;4899;42.644;23.366;2023-02-28T17:29:52;7.23;;;5.10;;
9720;SDS011;4899;42.644;23.366;2023-02-28T17:32:18;10.47;;;5.77;;
9720;SDS011;4899;42.644;23.366;2023-02-28T17:34:44;6.27;;;4.87;;